PWSweather.com
Personal Weather Stations
Station Observations

EtonMackayAU

Lat: -21.263, Lon: 148.975

Elevation: 106

Station Type: Davis Vantage Vue

http://aspgweather.com/cumulus/data.php

Latest ConditionsUpdated 10:36:00 AM GMT+10:10 Tuesday, Oct 16, 2018
Currently Today's Max Today's Min Today's Average
Temperature 78.8°F26.0°C 78.8°F26.0°C 62.1°F16.7°C 68.7°F20.4°C
Dew Point 69.3°F20.7°C 70.9°F21.6°C 59.9°F15.5°C 64.7°F18.2°C
Winds 9.3 mph NW15.0 kmh NW 9.9 mph -15.9 kmh - - 2.0 mph 3.2 kmh
Wind Gusts 12.4 mph20.0 kmh 14.3 mph23.0 kmh - -
Humidity 73% 98% 73% 87%
Pressure 29.97 in1014.9 mb 29.99 in1015.6 mb 29.89 in1012.2 mb -
Hour Temp Dew Point Humidity Winds Wind Gusts Pressure Precip Precip Rate Daily Precip Total
10:36 AM 78.8°F26.0°C 69.3°F20.7°C 73% 9.3 mph NW15.0 kmh NW 12.4 mph20.0 kmh 29.97 in1014.9 mb 0.00 in0.0 mm 0.00 in0.0 mm 0.00 in0.0 mm
10:31 AM 78.4°F25.8°C 69.6°F20.9°C 74% 9.3 mph NW15.0 kmh NW 12.4 mph20.0 kmh 29.97 in1014.9 mb 0.00 in0.0 mm 0.00 in0.0 mm 0.00 in0.0 mm
10:26 AM 77.7°F25.4°C 70.0°F21.1°C 77% 9.3 mph NW15.0 kmh NW 12.4 mph20.0 kmh 29.97 in1014.9 mb 0.00 in0.0 mm 0.00 in0.0 mm 0.00 in0.0 mm
10:21 AM 77.5°F25.3°C 68.7°F20.4°C 74% 9.9 mph NNW15.9 kmh NNW 12.4 mph20.0 kmh 29.98 in1015.2 mb 0.00 in0.0 mm 0.00 in0.0 mm 0.00 in0.0 mm
10:16 AM 77.9°F25.5°C 68.9°F20.5°C 74% 9.9 mph N15.9 kmh N 12.4 mph20.0 kmh 29.98 in1015.2 mb 0.00 in0.0 mm 0.00 in0.0 mm 0.00 in0.0 mm
10:11 AM 77.5°F25.3°C 69.3°F20.7°C 76% 8.1 mph NNW13.0 kmh NNW 12.4 mph20.0 kmh 29.98 in1015.2 mb 0.00 in0.0 mm 0.00 in0.0 mm 0.00 in0.0 mm
10:06 AM 77.4°F25.2°C 69.1°F20.6°C 76% 8.1 mph N13.0 kmh N 12.4 mph20.0 kmh 29.98 in1015.2 mb 0.00 in0.0 mm 0.00 in0.0 mm 0.00 in0.0 mm
10:01 AM 77.0°F25.0°C 68.7°F20.4°C 76% 8.1 mph N13.0 kmh N 10.6 mph17.1 kmh 29.98 in1015.2 mb 0.00 in0.0 mm 0.00 in0.0 mm 0.00 in0.0 mm
09:56 AM 76.6°F24.8°C 69.1°F20.6°C 78% 6.8 mph N10.9 kmh N 10.6 mph17.1 kmh 29.99 in1015.6 mb 0.00 in0.0 mm 0.00 in0.0 mm 0.00 in0.0 mm
09:51 AM 76.5°F24.7°C 68.9°F20.5°C 78% 5.6 mph N9.0 kmh N 10.6 mph17.1 kmh 29.98 in1015.2 mb 0.00 in0.0 mm 0.00 in0.0 mm 0.00 in0.0 mm
09:41 AM 76.5°F24.7°C 69.3°F20.7°C 79% 5.6 mph NNW9.0 kmh NNW 14.3 mph23.0 kmh 29.98 in1015.2 mb 0.00 in0.0 mm 0.00 in0.0 mm 0.00 in0.0 mm
09:36 AM 75.9°F24.4°C 69.8°F21.0°C 81% 5.6 mph NNW9.0 kmh NNW 8.7 mph14.0 kmh 29.98 in1015.2 mb 0.00 in0.0 mm 0.00 in0.0 mm 0.00 in0.0 mm
09:31 AM 76.1°F24.5°C 69.8°F21.0°C 81% 6.8 mph N10.9 kmh N 8.7 mph14.0 kmh 29.98 in1015.2 mb 0.00 in0.0 mm 0.00 in0.0 mm 0.00 in0.0 mm
09:26 AM 76.5°F24.7°C 69.6°F20.9°C 79% 6.8 mph N10.9 kmh N 10.6 mph17.1 kmh 29.98 in1015.2 mb 0.00 in0.0 mm 0.00 in0.0 mm 0.00 in0.0 mm
09:21 AM 76.5°F24.7°C 69.6°F20.9°C 79% 5.6 mph NNE9.0 kmh NNE 10.6 mph17.1 kmh 29.98 in1015.2 mb 0.00 in0.0 mm 0.00 in0.0 mm 0.00 in0.0 mm
09:16 AM 75.9°F24.4°C 69.8°F21.0°C 81% 6.8 mph N10.9 kmh N 11.2 mph18.0 kmh 29.98 in1015.2 mb 0.00 in0.0 mm 0.00 in0.0 mm 0.00 in0.0 mm
09:11 AM 75.7°F24.3°C 69.8°F21.0°C 82% 8.1 mph N13.0 kmh N 11.2 mph18.0 kmh 29.98 in1015.2 mb 0.00 in0.0 mm 0.00 in0.0 mm 0.00 in0.0 mm
09:06 AM 75.4°F24.1°C 69.8°F21.0°C 83% 7.5 mph NNE12.1 kmh NNE 11.2 mph18.0 kmh 29.98 in1015.2 mb 0.00 in0.0 mm 0.00 in0.0 mm 0.00 in0.0 mm
09:01 AM 74.7°F23.7°C 69.1°F20.6°C 83% 6.8 mph N10.9 kmh N 10.6 mph17.1 kmh 29.98 in1015.2 mb 0.00 in0.0 mm 0.00 in0.0 mm 0.00 in0.0 mm
08:56 AM 75.2°F24.0°C 69.8°F21.0°C 83% 6.2 mph NW10.0 kmh NW 8.7 mph14.0 kmh 29.98 in1015.2 mb 0.00 in0.0 mm 0.00 in0.0 mm 0.00 in0.0 mm
08:51 AM 75.4°F24.1°C 70.7°F21.5°C 85% 6.2 mph N10.0 kmh N 8.7 mph14.0 kmh 29.98 in1015.2 mb 0.00 in0.0 mm 0.00 in0.0 mm 0.00 in0.0 mm
08:46 AM 75.0°F23.9°C 70.0°F21.1°C 84% 5.0 mph N8.0 kmh N 8.7 mph14.0 kmh 29.98 in1015.2 mb 0.00 in0.0 mm 0.00 in0.0 mm 0.00 in0.0 mm
08:41 AM 74.8°F23.8°C 70.9°F21.6°C 88% 4.3 mph NNE6.9 kmh NNE 8.1 mph13.0 kmh 29.98 in1015.2 mb 0.00 in0.0 mm 0.00 in0.0 mm 0.00 in0.0 mm
08:36 AM 74.5°F23.6°C 70.3°F21.3°C 87% 3.1 mph NNE5.0 kmh NNE 6.2 mph10.0 kmh 29.98 in1015.2 mb 0.00 in0.0 mm 0.00 in0.0 mm 0.00 in0.0 mm
08:31 AM 75.0°F23.9°C 70.9°F21.6°C 87% 1.9 mph NE3.1 kmh NE 5.0 mph8.0 kmh 29.98 in1015.2 mb 0.00 in0.0 mm 0.00 in0.0 mm 0.00 in0.0 mm
08:26 AM 75.2°F24.0°C 70.2°F21.2°C 84% 1.9 mph NE3.1 kmh NE 5.0 mph8.0 kmh 29.98 in1015.2 mb 0.00 in0.0 mm 0.00 in0.0 mm 0.00 in0.0 mm
08:21 AM 76.5°F24.7°C 70.3°F21.3°C 81% 2.5 mph N4.0 kmh N 6.2 mph10.0 kmh 29.98 in1015.2 mb 0.00 in0.0 mm 0.00 in0.0 mm 0.00 in0.0 mm
08:16 AM 77.0°F25.0°C 70.2°F21.2°C 80% 3.7 mph NNW6.0 kmh NNW 6.2 mph10.0 kmh 29.98 in1015.2 mb 0.00 in0.0 mm 0.00 in0.0 mm 0.00 in0.0 mm
08:11 AM 76.6°F24.8°C 69.4°F20.8°C 79% 2.5 mph NW4.0 kmh NW 5.0 mph8.0 kmh 29.98 in1015.2 mb 0.00 in0.0 mm 0.00 in0.0 mm 0.00 in0.0 mm
08:06 AM 76.5°F24.7°C 68.9°F20.5°C 78% 1.9 mph N3.1 kmh N 3.7 mph6.0 kmh 29.98 in1015.2 mb 0.00 in0.0 mm 0.00 in0.0 mm 0.00 in0.0 mm
08:01 AM 75.7°F24.3°C 68.4°F20.2°C 78% 1.2 mph NNW1.9 kmh NNW 3.7 mph6.0 kmh 29.98 in1015.2 mb 0.00 in0.0 mm 0.00 in0.0 mm 0.00 in0.0 mm
07:56 AM 75.9°F24.4°C 67.8°F19.9°C 76% 0.6 mph NW1.0 kmh NW 3.7 mph6.0 kmh 29.98 in1015.2 mb 0.00 in0.0 mm 0.00 in0.0 mm 0.00 in0.0 mm
07:51 AM 75.4°F24.1°C 67.6°F19.8°C 77% Calm Calm -- 29.98 in1015.2 mb 0.00 in0.0 mm 0.00 in0.0 mm 0.00 in0.0 mm
07:46 AM 75.0°F23.9°C 67.3°F19.6°C 77% Calm Calm -- 29.98 in1015.2 mb 0.00 in0.0 mm 0.00 in0.0 mm 0.00 in0.0 mm
07:41 AM 73.8°F23.2°C 66.7°F19.3°C 79% Calm Calm -- 29.97 in1014.9 mb 0.00 in0.0 mm 0.00 in0.0 mm 0.00 in0.0 mm
07:36 AM 72.5°F22.5°C 66.6°F19.2°C 82% Calm Calm -- 29.97 in1014.9 mb 0.00 in0.0 mm 0.00 in0.0 mm 0.00 in0.0 mm
07:31 AM 71.2°F21.8°C 66.7°F19.3°C 86% Calm Calm -- 29.97 in1014.9 mb 0.00 in0.0 mm 0.00 in0.0 mm 0.00 in0.0 mm
07:26 AM 70.0°F21.1°C 66.6°F19.2°C 89% Calm Calm -- 29.97 in1014.9 mb 0.00 in0.0 mm 0.00 in0.0 mm 0.00 in0.0 mm
07:21 AM 69.1°F20.6°C 66.2°F19.0°C 91% Calm Calm -- 29.96 in1014.6 mb 0.00 in0.0 mm 0.00 in0.0 mm 0.00 in0.0 mm
07:16 AM 68.4°F20.2°C 66.2°F19.0°C 93% Calm Calm -- 29.96 in1014.6 mb 0.00 in0.0 mm 0.00 in0.0 mm 0.00 in0.0 mm
07:11 AM 67.6°F19.8°C 65.7°F18.7°C 93% Calm Calm -- 29.96 in1014.6 mb 0.00 in0.0 mm 0.00 in0.0 mm 0.00 in0.0 mm
07:06 AM 67.6°F19.8°C 65.5°F18.6°C 93% Calm Calm -- 29.96 in1014.6 mb 0.00 in0.0 mm 0.00 in0.0 mm 0.00 in0.0 mm
07:01 AM 67.6°F19.8°C 65.3°F18.5°C 92% Calm Calm -- 29.96 in1014.6 mb 0.00 in0.0 mm 0.00 in0.0 mm 0.00 in0.0 mm
06:51 AM 67.5°F19.7°C 65.3°F18.5°C 93% Calm Calm -- 29.95 in1014.2 mb 0.00 in0.0 mm 0.00 in0.0 mm 0.00 in0.0 mm
06:46 AM 66.4°F19.1°C 65.7°F18.7°C 98% Calm Calm -- 29.95 in1014.2 mb 0.00 in0.0 mm 0.00 in0.0 mm 0.00 in0.0 mm
06:41 AM 66.4°F19.1°C 65.7°F18.7°C 98% Calm Calm -- 29.95 in1014.2 mb 0.00 in0.0 mm 0.00 in0.0 mm 0.00 in0.0 mm
06:36 AM 65.3°F18.5°C 64.2°F17.9°C 96% Calm Calm -- 29.94 in1013.9 mb 0.00 in0.0 mm 0.00 in0.0 mm 0.00 in0.0 mm
06:31 AM 64.9°F18.3°C 63.7°F17.6°C 96% Calm Calm -- 29.95 in1014.2 mb 0.00 in0.0 mm 0.00 in0.0 mm 0.00 in0.0 mm
06:26 AM 65.1°F18.4°C 62.6°F17.0°C 92% Calm Calm -- 29.95 in1014.2 mb 0.00 in0.0 mm 0.00 in0.0 mm 0.00 in0.0 mm
06:21 AM 64.6°F18.1°C 61.7°F16.5°C 90% Calm Calm -- 29.95 in1014.2 mb 0.00 in0.0 mm 0.00 in0.0 mm 0.00 in0.0 mm
06:16 AM 63.9°F17.7°C 61.2°F16.2°C 91% Calm Calm -- 29.95 in1014.2 mb 0.00 in0.0 mm 0.00 in0.0 mm 0.00 in0.0 mm
06:11 AM 63.7°F17.6°C 61.0°F16.1°C 91% Calm Calm -- 29.94 in1013.9 mb 0.00 in0.0 mm 0.00 in0.0 mm 0.00 in0.0 mm
06:06 AM 62.6°F17.0°C 60.4°F15.8°C 93% Calm Calm -- 29.94 in1013.9 mb 0.00 in0.0 mm 0.00 in0.0 mm 0.00 in0.0 mm
06:01 AM 62.2°F16.8°C 60.1°F15.6°C 93% Calm Calm -- 29.94 in1013.9 mb 0.00 in0.0 mm 0.00 in0.0 mm 0.00 in0.0 mm
05:56 AM 62.1°F16.7°C 60.1°F15.6°C 93% Calm Calm -- 29.94 in1013.9 mb 0.00 in0.0 mm 0.00 in0.0 mm 0.00 in0.0 mm
05:51 AM 62.2°F16.8°C 60.4°F15.8°C 94% Calm Calm -- 29.94 in1013.9 mb 0.00 in0.0 mm 0.00 in0.0 mm 0.00 in0.0 mm
05:46 AM 63.3°F17.4°C 60.3°F15.7°C 90% Calm Calm -- 29.93 in1013.5 mb 0.00 in0.0 mm 0.00 in0.0 mm 0.00 in0.0 mm
05:41 AM 63.9°F17.7°C 59.9°F15.5°C 87% Calm Calm -- 29.93 in1013.5 mb 0.00 in0.0 mm 0.00 in0.0 mm 0.00 in0.0 mm
05:36 AM 63.7°F17.6°C 59.9°F15.5°C 88% Calm Calm -- 29.93 in1013.5 mb 0.00 in0.0 mm 0.00 in0.0 mm 0.00 in0.0 mm
05:31 AM 63.9°F17.7°C 59.9°F15.5°C 87% Calm Calm -- 29.93 in1013.5 mb 0.00 in0.0 mm 0.00 in0.0 mm 0.00 in0.0 mm
05:26 AM 63.3°F17.4°C 60.1°F15.6°C 89% Calm Calm -- 29.93 in1013.5 mb 0.00 in0.0 mm 0.00 in0.0 mm 0.00 in0.0 mm
05:21 AM 63.3°F17.4°C 60.1°F15.6°C 89% Calm Calm -- 29.93 in1013.5 mb 0.00 in0.0 mm 0.00 in0.0 mm 0.00 in0.0 mm
05:16 AM 63.3°F17.4°C 60.1°F15.6°C 89% Calm Calm -- 29.92 in1013.2 mb 0.00 in0.0 mm 0.00 in0.0 mm 0.00 in0.0 mm
05:11 AM 63.3°F17.4°C 60.1°F15.6°C 89% Calm Calm -- 29.93 in1013.5 mb 0.00 in0.0 mm 0.00 in0.0 mm 0.00 in0.0 mm
05:06 AM 64.0°F17.8°C 59.9°F15.5°C 86% Calm Calm -- 29.92 in1013.2 mb 0.00 in0.0 mm 0.00 in0.0 mm 0.00 in0.0 mm
05:01 AM 63.5°F17.5°C 59.9°F15.5°C 88% Calm Calm -- 29.92 in1013.2 mb 0.00 in0.0 mm 0.00 in0.0 mm 0.00 in0.0 mm
04:56 AM 62.4°F16.9°C 59.9°F15.5°C 92% Calm Calm -- 29.92 in1013.2 mb 0.00 in0.0 mm 0.00 in0.0 mm 0.00 in0.0 mm
04:51 AM 63.7°F17.6°C 59.9°F15.5°C 88% Calm Calm -- 29.92 in1013.2 mb 0.00 in0.0 mm 0.00 in0.0 mm 0.00 in0.0 mm
04:46 AM 62.2°F16.8°C 59.9°F15.5°C 92% Calm Calm 1.9 mph3.1 kmh 29.92 in1013.2 mb 0.00 in0.0 mm 0.00 in0.0 mm 0.00 in0.0 mm
04:41 AM 63.9°F17.7°C 59.9°F15.5°C 87% 1.2 mph SE1.9 kmh SE 3.7 mph6.0 kmh 29.92 in1013.2 mb 0.00 in0.0 mm 0.00 in0.0 mm 0.00 in0.0 mm
04:36 AM 64.6°F18.1°C 60.4°F15.8°C 87% 3.1 mph SE5.0 kmh SE 6.2 mph10.0 kmh 29.91 in1012.9 mb 0.00 in0.0 mm 0.00 in0.0 mm 0.00 in0.0 mm
04:31 AM 64.6°F18.1°C 61.2°F16.2°C 89% 3.7 mph SE6.0 kmh SE 6.2 mph10.0 kmh 29.91 in1012.9 mb 0.00 in0.0 mm 0.00 in0.0 mm 0.00 in0.0 mm
04:26 AM 64.4°F18.0°C 61.7°F16.5°C 91% 2.5 mph SE4.0 kmh SE 5.0 mph8.0 kmh 29.90 in1012.5 mb 0.00 in0.0 mm 0.00 in0.0 mm 0.00 in0.0 mm
04:21 AM 64.0°F17.8°C 62.2°F16.8°C 94% Calm Calm -- 29.90 in1012.5 mb 0.00 in0.0 mm 0.00 in0.0 mm 0.00 in0.0 mm
04:16 AM 64.4°F18.0°C 62.1°F16.7°C 92% Calm Calm -- 29.90 in1012.5 mb 0.00 in0.0 mm 0.00 in0.0 mm 0.00 in0.0 mm
04:11 AM 64.0°F17.8°C 62.1°F16.7°C 93% Calm Calm -- 29.90 in1012.5 mb 0.00 in0.0 mm 0.00 in0.0 mm 0.00 in0.0 mm
04:06 AM 65.1°F18.4°C 62.1°F16.7°C 90% Calm Calm -- 29.90 in1012.5 mb 0.00 in0.0 mm 0.00 in0.0 mm 0.00 in0.0 mm
04:01 AM 65.1°F18.4°C 62.1°F16.7°C 90% Calm Calm -- 29.89 in1012.2 mb 0.00 in0.0 mm 0.00 in0.0 mm 0.00 in0.0 mm
03:56 AM 65.1°F18.4°C 62.4°F16.9°C 91% Calm Calm -- 29.89 in1012.2 mb 0.00 in0.0 mm 0.00 in0.0 mm 0.00 in0.0 mm
03:51 AM 65.3°F18.5°C 62.2°F16.8°C 90% Calm Calm -- 29.89 in1012.2 mb 0.00 in0.0 mm 0.00 in0.0 mm 0.00 in0.0 mm
03:46 AM 65.3°F18.5°C 62.4°F16.9°C 90% Calm Calm -- 29.89 in1012.2 mb 0.00 in0.0 mm 0.00 in0.0 mm 0.00 in0.0 mm
03:41 AM 65.3°F18.5°C 63.1°F17.3°C 93% Calm Calm -- 29.89 in1012.2 mb 0.00 in0.0 mm 0.00 in0.0 mm 0.00 in0.0 mm
03:36 AM 65.7°F18.7°C 63.3°F17.4°C 92% Calm Calm -- 29.89 in1012.2 mb 0.00 in0.0 mm 0.00 in0.0 mm 0.00 in0.0 mm
03:31 AM 65.8°F18.8°C 63.7°F17.6°C 93% Calm Calm -- 29.89 in1012.2 mb 0.00 in0.0 mm 0.00 in0.0 mm 0.00 in0.0 mm
03:26 AM 66.0°F18.9°C 63.5°F17.5°C 92% Calm Calm -- 29.89 in1012.2 mb 0.00 in0.0 mm 0.00 in0.0 mm 0.00 in0.0 mm
03:21 AM 66.2°F19.0°C 63.9°F17.7°C 92% Calm Calm -- 29.89 in1012.2 mb 0.00 in0.0 mm 0.00 in0.0 mm 0.00 in0.0 mm
03:16 AM 66.2°F19.0°C 63.5°F17.5°C 91% Calm Calm 1.9 mph3.1 kmh 29.89 in1012.2 mb 0.00 in0.0 mm 0.00 in0.0 mm 0.00 in0.0 mm
03:11 AM 66.6°F19.2°C 63.5°F17.5°C 90% Calm Calm 1.9 mph3.1 kmh 29.89 in1012.2 mb 0.00 in0.0 mm 0.00 in0.0 mm 0.00 in0.0 mm
03:06 AM 66.4°F19.1°C 63.9°F17.7°C 92% Calm Calm -- 29.89 in1012.2 mb 0.00 in0.0 mm 0.00 in0.0 mm 0.00 in0.0 mm
03:01 AM 66.2°F19.0°C 63.9°F17.7°C 92% Calm Calm 1.9 mph3.1 kmh 29.89 in1012.2 mb 0.00 in0.0 mm 0.00 in0.0 mm 0.00 in0.0 mm
02:56 AM 66.0°F18.9°C 63.5°F17.5°C 92% 0.6 mph SW1.0 kmh SW 1.9 mph3.1 kmh 29.89 in1012.2 mb 0.00 in0.0 mm 0.00 in0.0 mm 0.00 in0.0 mm
02:51 AM 66.0°F18.9°C 63.5°F17.5°C 92% 1.2 mph SW1.9 kmh SW 2.5 mph4.0 kmh 29.90 in1012.5 mb 0.00 in0.0 mm 0.00 in0.0 mm 0.00 in0.0 mm
02:46 AM 66.0°F18.9°C 63.9°F17.7°C 93% 1.2 mph SW1.9 kmh SW 2.5 mph4.0 kmh 29.90 in1012.5 mb 0.00 in0.0 mm 0.00 in0.0 mm 0.00 in0.0 mm
02:41 AM 66.2°F19.0°C 63.9°F17.7°C 92% 0.6 mph SW1.0 kmh SW 1.9 mph3.1 kmh 29.90 in1012.5 mb 0.00 in0.0 mm 0.00 in0.0 mm 0.00 in0.0 mm
02:31 AM 66.2°F19.0°C 63.3°F17.4°C 91% 1.2 mph SW1.9 kmh SW 3.7 mph6.0 kmh 29.90 in1012.5 mb 0.00 in0.0 mm 0.00 in0.0 mm 0.00 in0.0 mm
02:21 AM 65.8°F18.8°C 63.3°F17.4°C 92% Calm Calm 2.5 mph4.0 kmh 29.89 in1012.2 mb 0.00 in0.0 mm 0.00 in0.0 mm 0.00 in0.0 mm
02:16 AM 65.7°F18.7°C 63.7°F17.6°C 93% Calm Calm -- 29.89 in1012.2 mb 0.00 in0.0 mm 0.00 in0.0 mm 0.00 in0.0 mm
02:11 AM 65.1°F18.4°C 63.5°F17.5°C 95% Calm Calm -- 29.89 in1012.2 mb 0.00 in0.0 mm 0.00 in0.0 mm 0.00 in0.0 mm
02:06 AM 64.9°F18.3°C 63.5°F17.5°C 95% Calm Calm 1.9 mph3.1 kmh 29.90 in1012.5 mb 0.00 in0.0 mm 0.00 in0.0 mm 0.00 in0.0 mm
02:01 AM 64.6°F18.1°C 63.1°F17.3°C 95% 1.2 mph WSW1.9 kmh WSW 3.7 mph6.0 kmh 29.90 in1012.5 mb 0.00 in0.0 mm 0.00 in0.0 mm 0.00 in0.0 mm
01:56 AM 64.4°F18.0°C 63.3°F17.4°C 96% 2.5 mph WSW4.0 kmh WSW 3.7 mph6.0 kmh 29.90 in1012.5 mb 0.00 in0.0 mm 0.00 in0.0 mm 0.00 in0.0 mm
01:51 AM 63.9°F17.7°C 63.1°F17.3°C 98% 3.1 mph W5.0 kmh W 3.7 mph6.0 kmh 29.90 in1012.5 mb 0.00 in0.0 mm 0.00 in0.0 mm 0.00 in0.0 mm
01:46 AM 63.9°F17.7°C 62.8°F17.1°C 96% 3.1 mph W5.0 kmh W 3.7 mph6.0 kmh 29.90 in1012.5 mb 0.00 in0.0 mm 0.00 in0.0 mm 0.00 in0.0 mm
01:41 AM 64.0°F17.8°C 63.0°F17.2°C 96% 3.1 mph W5.0 kmh W 3.7 mph6.0 kmh 29.90 in1012.5 mb 0.00 in0.0 mm 0.00 in0.0 mm 0.00 in0.0 mm
01:36 AM 64.4°F18.0°C 62.8°F17.1°C 95% 2.5 mph WSW4.0 kmh WSW 3.7 mph6.0 kmh 29.90 in1012.5 mb 0.00 in0.0 mm 0.00 in0.0 mm 0.00 in0.0 mm
01:31 AM 64.6°F18.1°C 62.4°F16.9°C 93% 0.6 mph WSW1.0 kmh WSW 3.7 mph6.0 kmh 29.90 in1012.5 mb 0.00 in0.0 mm 0.00 in0.0 mm 0.00 in0.0 mm
01:26 AM 65.1°F18.4°C 62.1°F16.7°C 90% Calm Calm -- 29.91 in1012.9 mb 0.00 in0.0 mm 0.00 in0.0 mm 0.00 in0.0 mm
01:21 AM 66.2°F19.0°C 62.1°F16.7°C 87% Calm Calm -- 29.91 in1012.9 mb 0.00 in0.0 mm 0.00 in0.0 mm 0.00 in0.0 mm
01:16 AM 66.4°F19.1°C 62.2°F16.8°C 87% Calm Calm -- 29.91 in1012.9 mb 0.00 in0.0 mm 0.00 in0.0 mm 0.00 in0.0 mm
01:06 AM 67.1°F19.5°C 62.4°F16.9°C 85% Calm Calm -- 29.90 in1012.5 mb 0.00 in0.0 mm 0.00 in0.0 mm 0.00 in0.0 mm
01:01 AM 67.6°F19.8°C 62.4°F16.9°C 83% Calm Calm -- 29.91 in1012.9 mb 0.00 in0.0 mm 0.00 in0.0 mm 0.00 in0.0 mm
12:56 AM 68.2°F20.1°C 62.4°F16.9°C 82% Calm Calm -- 29.91 in1012.9 mb 0.00 in0.0 mm 0.00 in0.0 mm 0.00 in0.0 mm
12:51 AM 68.4°F20.2°C 62.6°F17.0°C 82% Calm Calm 1.9 mph3.1 kmh 29.91 in1012.9 mb 0.00 in0.0 mm 0.00 in0.0 mm 0.00 in0.0 mm
12:41 AM 68.9°F20.5°C 63.0°F17.2°C 81% 1.2 mph SE1.9 kmh SE 3.7 mph6.0 kmh 29.91 in1012.9 mb 0.00 in0.0 mm 0.00 in0.0 mm 0.00 in0.0 mm
12:36 AM 68.9°F20.5°C 63.3°F17.4°C 82% 0.6 mph SE1.0 kmh SE 3.7 mph6.0 kmh 29.91 in1012.9 mb 0.00 in0.0 mm 0.00 in0.0 mm 0.00 in0.0 mm
12:31 AM 68.7°F20.4°C 63.3°F17.4°C 83% 1.2 mph SE1.9 kmh SE 3.7 mph6.0 kmh 29.91 in1012.9 mb 0.00 in0.0 mm 0.00 in0.0 mm 0.00 in0.0 mm
12:26 AM 69.1°F20.6°C 63.7°F17.6°C 83% 3.7 mph SE6.0 kmh SE 6.2 mph10.0 kmh 29.91 in1012.9 mb 0.00 in0.0 mm 0.00 in0.0 mm 0.00 in0.0 mm
12:16 AM 69.4°F20.8°C 64.8°F18.2°C 85% 5.0 mph SE8.0 kmh SE 8.1 mph13.0 kmh 29.92 in1013.2 mb 0.00 in0.0 mm 0.00 in0.0 mm 0.00 in0.0 mm
12:11 AM 68.9°F20.5°C 65.1°F18.4°C 88% 4.3 mph SE6.9 kmh SE 5.0 mph8.0 kmh 29.92 in1013.2 mb 0.00 in0.0 mm 0.00 in0.0 mm 0.00 in0.0 mm
12:06 AM 68.7°F20.4°C 65.5°F18.6°C 89% 4.3 mph SE6.9 kmh SE 5.0 mph8.0 kmh 29.93 in1013.5 mb 0.00 in0.0 mm 0.00 in0.0 mm 0.00 in0.0 mm
12:01 AM 68.5°F20.3°C 66.2°F19.0°C 92% 2.5 mph SE4.0 kmh SE 5.0 mph8.0 kmh 29.93 in1013.5 mb 0.00 in0.0 mm 0.00 in0.0 mm 0.00 in0.0 mm